createdAt,value
2018-11-11T00:02:24.771Z,16.80
2018-11-11T00:04:52.980Z,17.62
2018-11-11T00:07:21.190Z,17.40
2018-11-11T00:09:49.394Z,15.03
2018-11-11T00:12:17.633Z,16.90
2018-11-11T00:14:45.848Z,14.90
2018-11-11T00:17:14.458Z,15.80
2018-11-11T00:19:42.668Z,15.48
2018-11-11T00:22:10.919Z,15.30
2018-11-11T00:24:39.144Z,15.38
2018-11-11T00:27:07.467Z,13.85
2018-11-11T00:29:35.823Z,14.78
2018-11-11T00:32:04.040Z,15.70
2018-11-11T00:34:32.358Z,14.47
2018-11-11T00:37:00.561Z,15.23
2018-11-11T00:39:28.783Z,15.05
2018-11-11T00:41:56.999Z,15.48
2018-11-11T00:44:25.199Z,16.25
2018-11-11T00:46:53.402Z,14.58
2018-11-11T00:49:21.606Z,15.20
2018-11-11T00:51:49.822Z,15.32
2018-11-11T00:54:18.044Z,15.90
2018-11-11T00:56:46.250Z,13.88
2018-11-11T00:59:14.447Z,15.05
2018-11-11T01:01:42.660Z,16.60
2018-11-11T01:04:10.867Z,17.48
2018-11-11T01:06:39.083Z,19.52
2018-11-11T01:09:07.314Z,14.35
2018-11-11T01:11:35.522Z,22.05
2018-11-11T01:14:03.775Z,16.23
2018-11-11T01:16:32.174Z,13.30
2018-11-11T01:19:00.378Z,14.35
2018-11-11T01:21:28.585Z,14.70
2018-11-11T01:23:56.814Z,13.15
2018-11-11T01:26:25.456Z,14.13
2018-11-11T01:28:53.672Z,14.87
2018-11-11T01:31:21.903Z,13.90
2018-11-11T01:33:50.115Z,15.50
2018-11-11T01:36:18.326Z,14.20
2018-11-11T01:38:46.528Z,12.55
2018-11-11T01:41:14.738Z,15.53
2018-11-11T01:43:42.946Z,14.28
2018-11-11T01:46:11.153Z,15.15
2018-11-11T01:48:39.368Z,14.35
2018-11-11T01:51:08.136Z,15.25
2018-11-11T01:53:36.341Z,13.93
2018-11-11T01:56:04.546Z,14.85
2018-11-11T01:58:32.766Z,14.05
2018-11-11T02:01:00.974Z,14.35
2018-11-11T02:03:29.187Z,14.25
2018-11-11T02:05:57.422Z,13.22
2018-11-11T02:08:25.642Z,11.83
2018-11-11T02:10:53.848Z,13.15
2018-11-11T02:13:22.056Z,12.68
2018-11-11T02:15:50.564Z,13.30
2018-11-11T02:18:18.775Z,13.00
2018-11-11T02:20:46.982Z,14.50
2018-11-11T02:23:15.191Z,13.28
2018-11-11T02:25:43.448Z,15.00
2018-11-11T02:28:11.670Z,12.70
2018-11-11T02:30:39.879Z,14.03
2018-11-11T02:33:08.083Z,12.75
2018-11-11T02:35:36.294Z,12.82
2018-11-11T02:38:04.502Z,13.35
2018-11-11T02:40:32.707Z,14.10
2018-11-11T02:43:00.910Z,13.95
2018-11-11T02:45:29.130Z,14.95
2018-11-11T02:47:57.368Z,15.90
2018-11-11T02:50:25.600Z,13.80
2018-11-11T02:52:53.814Z,14.25
2018-11-11T02:55:22.035Z,20.77
2018-11-11T02:57:50.238Z,18.77
2018-11-11T03:00:19.765Z,21.97
2018-11-11T03:02:48.458Z,18.10
2018-11-11T03:05:17.565Z,16.80
2018-11-11T03:07:45.782Z,18.55
2018-11-11T03:10:15.147Z,24.70
2018-11-11T03:12:43.838Z,16.37
2018-11-11T03:15:12.956Z,16.42
2018-11-11T03:17:41.210Z,16.70
2018-11-11T03:20:10.159Z,16.05
2018-11-11T03:22:38.400Z,16.30
2018-11-11T03:25:07.727Z,15.88
2018-11-11T03:27:35.952Z,17.70
2018-11-11T03:30:04.664Z,16.62
2018-11-11T03:32:32.879Z,17.70
2018-11-11T03:35:01.091Z,15.95
2018-11-11T03:37:29.298Z,18.30
2018-11-11T03:39:57.503Z,17.23
2018-11-11T03:42:25.714Z,15.88
2018-11-11T03:44:53.982Z,18.98
2018-11-11T03:47:22.197Z,19.62
2018-11-11T03:49:50.409Z,17.57
2018-11-11T03:52:18.622Z,19.42
2018-11-11T03:54:46.882Z,18.02
2018-11-11T03:57:15.082Z,15.78
2018-11-11T03:59:43.282Z,16.90
2018-11-11T04:02:11.491Z,15.78
2018-11-11T04:04:39.702Z,16.75
2018-11-11T04:07:07.903Z,17.55
2018-11-11T04:09:36.144Z,14.53
2018-11-11T04:12:04.369Z,15.32
2018-11-11T04:14:32.591Z,15.40
2018-11-11T04:17:00.800Z,16.00
2018-11-11T04:19:29.019Z,16.70
2018-11-11T04:21:57.229Z,14.75
2018-11-11T04:24:25.490Z,15.53
2018-11-11T04:26:53.699Z,14.90
2018-11-11T04:29:21.907Z,14.83
2018-11-11T04:31:50.166Z,16.40
2018-11-11T04:34:18.378Z,16.00
2018-11-11T04:36:46.582Z,14.38
2018-11-11T04:39:15.106Z,13.13
2018-11-11T04:41:43.242Z,14.90
2018-11-11T04:44:11.451Z,14.73
2018-11-11T04:46:39.657Z,17.30
2018-11-11T04:49:07.873Z,18.10
2018-11-11T04:51:36.110Z,18.45
2018-11-11T04:54:04.814Z,17.87
2018-11-11T04:56:33.038Z,18.75
2018-11-11T04:59:01.262Z,13.72
2018-11-11T05:01:29.485Z,20.60
2018-11-11T05:03:57.714Z,16.12
2018-11-11T05:06:25.922Z,18.62
2018-11-11T05:08:54.139Z,15.38
2018-11-11T05:11:22.395Z,15.55
2018-11-11T05:13:50.654Z,14.63
2018-11-11T05:16:18.867Z,17.48
2018-11-11T05:18:47.083Z,14.03
2018-11-11T05:21:15.282Z,16.35
2018-11-11T05:23:43.482Z,17.37
2018-11-11T05:26:11.690Z,14.33
2018-11-11T05:28:39.900Z,17.27
2018-11-11T05:31:08.119Z,22.93
2018-11-11T05:33:36.326Z,18.20
2018-11-11T05:36:05.102Z,17.20
2018-11-11T05:38:33.306Z,16.90
2018-11-11T05:41:01.512Z,16.32
2018-11-11T05:43:29.726Z,17.20
2018-11-11T05:45:57.935Z,14.65
2018-11-11T05:48:26.415Z,14.68
2018-11-11T05:50:54.623Z,13.30
2018-11-11T05:53:22.833Z,13.90
2018-11-11T05:55:51.046Z,15.35
2018-11-11T05:58:19.251Z,16.50
2018-11-11T06:00:47.459Z,16.67
2018-11-11T06:03:15.662Z,16.97
2018-11-11T06:05:43.939Z,17.25
2018-11-11T06:08:12.143Z,18.10
2018-11-11T06:10:40.361Z,17.23
2018-11-11T06:13:08.570Z,17.30
2018-11-11T06:15:36.781Z,19.55
2018-11-11T06:18:05.391Z,19.85
2018-11-11T06:20:33.608Z,20.48
2018-11-11T06:23:01.814Z,20.40
2018-11-11T06:25:30.034Z,20.35
2018-11-11T06:27:58.238Z,21.48
2018-11-11T06:30:26.446Z,21.68
2018-11-11T06:32:54.678Z,22.55
2018-11-11T06:35:22.902Z,22.60
2018-11-11T06:37:51.134Z,23.45
2018-11-11T06:40:19.341Z,23.38
2018-11-11T06:42:47.559Z,24.27
2018-11-11T06:45:15.819Z,22.22
2018-11-11T06:47:44.660Z,23.22
2018-11-11T06:50:13.962Z,28.38
2018-11-11T06:52:42.679Z,24.18
2018-11-11T06:55:11.126Z,30.95
2018-11-11T06:57:39.860Z,29.77
2018-11-11T07:00:09.211Z,26.45
2018-11-11T07:02:38.803Z,23.35
2018-11-11T07:05:07.726Z,20.85
2018-11-11T07:07:36.208Z,22.65
2018-11-11T07:10:04.734Z,22.75
2018-11-11T07:12:32.942Z,23.12
2018-11-11T07:15:01.150Z,22.35
2018-11-11T07:17:29.361Z,22.25
2018-11-11T07:19:57.563Z,21.82
2018-11-11T07:22:25.852Z,20.43
2018-11-11T07:24:54.071Z,21.07
2018-11-11T07:27:22.392Z,20.23
2018-11-11T07:29:50.623Z,22.02
2018-11-11T07:32:18.838Z,18.62
2018-11-11T07:34:47.057Z,21.17
2018-11-11T07:37:15.259Z,18.87
2018-11-11T07:39:43.463Z,19.17
2018-11-11T07:42:11.705Z,17.82
2018-11-11T07:44:39.974Z,21.12
2018-11-11T07:47:08.183Z,18.15
2018-11-11T07:49:36.410Z,17.70
2018-11-11T07:52:05.944Z,17.35
2018-11-11T07:54:34.151Z,14.58
2018-11-11T07:57:02.359Z,17.17
2018-11-11T07:59:30.583Z,18.42
2018-11-11T08:01:58.857Z,15.25
2018-11-11T08:04:27.053Z,15.08
2018-11-11T08:06:55.267Z,12.37
2018-11-11T08:09:23.466Z,13.60
2018-11-11T08:12:01.590Z,11.57
2018-11-11T08:14:30.344Z,12.50
2018-11-11T08:16:58.799Z,11.05
2018-11-11T08:19:27.194Z,11.83
2018-11-11T08:21:55.424Z,11.83
2018-11-11T08:24:23.867Z,10.93
2018-11-11T08:26:52.542Z,9.25
2018-11-11T08:29:20.992Z,10.32
2018-11-11T08:31:49.325Z,11.90
2018-11-11T08:34:17.582Z,12.75
2018-11-11T08:36:46.419Z,11.73
2018-11-11T08:39:15.374Z,11.05
2018-11-11T08:41:44.620Z,13.40
2018-11-11T08:44:18.260Z,12.47
2018-11-11T08:46:47.682Z,10.18
2018-11-11T08:49:16.427Z,12.00
2018-11-11T08:51:44.713Z,40.65
2018-11-11T08:54:12.962Z,15.50
2018-11-11T08:56:41.291Z,14.13
2018-11-11T08:59:09.511Z,12.65
2018-11-11T09:01:37.794Z,12.70
2018-11-11T09:04:06.233Z,14.20
2018-11-11T09:06:34.442Z,13.98
2018-11-11T09:09:02.732Z,14.15
2018-11-11T09:11:31.016Z,15.50
2018-11-11T09:13:59.254Z,14.03
2018-11-11T09:16:27.474Z,15.60
2018-11-11T09:18:55.694Z,16.20
2018-11-11T09:21:23.941Z,18.60
2018-11-11T09:23:52.206Z,17.40
2018-11-11T09:26:20.387Z,17.10
2018-11-11T09:28:48.652Z,18.27
2018-11-11T09:31:16.876Z,19.60
2018-11-11T09:33:45.149Z,19.90
2018-11-11T09:36:13.390Z,19.60
2018-11-11T09:38:41.603Z,20.68
2018-11-11T09:41:10.046Z,18.82
2018-11-11T09:43:38.299Z,19.82
2018-11-11T09:46:06.615Z,21.93
2018-11-11T09:48:34.830Z,21.73
2018-11-11T09:51:03.047Z,22.75
2018-11-11T09:53:31.267Z,20.43
2018-11-11T09:55:59.474Z,22.00
2018-11-11T09:58:27.746Z,22.98
2018-11-11T10:00:55.916Z,21.00
2018-11-11T10:03:32.952Z,22.00
2018-11-11T10:08:07.907Z,23.15
2018-11-11T10:10:41.618Z,23.83
2018-11-11T10:13:20.194Z,26.37
2018-11-11T10:16:01.195Z,24.15
2018-11-11T10:18:42.221Z,24.65
2018-11-11T10:21:46.015Z,25.50
2018-11-11T10:24:19.772Z,23.65
2018-11-11T10:26:52.408Z,27.22
2018-11-11T10:29:25.052Z,25.30
2018-11-11T10:31:59.319Z,24.77
2018-11-11T10:34:32.942Z,26.25
2018-11-11T10:37:07.605Z,27.07
2018-11-11T10:39:41.856Z,26.12
2018-11-11T10:42:15.879Z,27.60
2018-11-11T10:45:03.060Z,32.15
2018-11-11T10:47:38.990Z,28.98
2018-11-11T10:50:09.155Z,30.05
2018-11-11T10:52:37.379Z,27.40
2018-11-11T10:55:05.611Z,28.42
2018-11-11T10:57:33.822Z,28.85
2018-11-11T11:00:02.748Z,30.23
2018-11-11T11:02:36.402Z,29.85
2018-11-11T11:05:09.570Z,28.92
2018-11-11T11:07:37.814Z,28.05
2018-11-11T11:10:06.591Z,30.90
2018-11-11T11:12:34.854Z,32.30
2018-11-11T11:15:03.959Z,27.07
2018-11-11T11:17:32.496Z,28.38
2018-11-11T11:20:00.702Z,31.27
2018-11-11T11:22:28.915Z,28.75
2018-11-11T11:24:57.115Z,25.50
2018-11-11T11:27:25.384Z,26.23
2018-11-11T11:29:53.570Z,29.32
2018-11-11T11:32:21.793Z,27.93
2018-11-11T11:34:50.007Z,26.25
2018-11-11T11:37:18.211Z,30.62
2018-11-11T11:39:46.423Z,27.07
2018-11-11T11:42:14.633Z,29.52
2018-11-11T11:44:42.834Z,32.38
2018-11-11T11:47:11.085Z,27.67
2018-11-11T11:49:39.298Z,25.65
2018-11-11T11:52:07.559Z,28.17
2018-11-11T11:54:35.746Z,26.65
2018-11-11T11:57:03.951Z,26.80
2018-11-11T11:59:32.148Z,25.80
2018-11-11T12:02:00.406Z,23.85
2018-11-11T12:04:28.620Z,29.87
2018-11-11T12:06:56.831Z,26.50
2018-11-11T12:09:25.066Z,27.05
2018-11-11T12:11:53.282Z,26.68
2018-11-11T12:14:21.629Z,28.32
2018-11-11T12:16:49.889Z,28.25
2018-11-11T12:19:18.067Z,25.25
2018-11-11T12:21:46.277Z,26.52
2018-11-11T12:24:14.483Z,27.80
2018-11-11T12:26:42.755Z,25.17
2018-11-11T12:29:10.958Z,27.80
2018-11-11T12:31:41.781Z,27.87
2018-11-11T12:34:11.001Z,26.27
2018-11-11T12:36:40.344Z,25.05
2018-11-11T12:39:11.188Z,27.37
2018-11-11T12:41:41.572Z,25.17
2018-11-11T12:44:10.450Z,25.57
2018-11-11T12:46:38.853Z,25.48
2018-11-11T12:49:07.144Z,25.37
2018-11-11T12:51:36.069Z,23.15
2018-11-11T12:54:05.014Z,22.55
2018-11-11T12:56:33.827Z,23.52
2018-11-11T12:59:03.589Z,19.45
2018-11-11T13:01:33.728Z,21.45
2018-11-11T13:04:02.508Z,20.55
2018-11-11T13:06:35.150Z,18.67
2018-11-11T13:09:04.643Z,18.70
2018-11-11T13:11:34.466Z,17.27
2018-11-11T13:14:02.940Z,17.82
2018-11-11T13:16:31.152Z,14.93
2018-11-11T13:18:59.434Z,17.20
2018-11-11T13:21:27.647Z,14.65
2018-11-11T13:23:55.862Z,13.65
2018-11-11T13:26:24.070Z,12.65
2018-11-11T13:28:52.366Z,14.10
2018-11-11T13:31:20.578Z,13.40
2018-11-11T13:33:48.799Z,13.53
2018-11-11T13:36:17.070Z,13.68
2018-11-11T13:38:45.281Z,15.43
2018-11-11T13:41:13.528Z,16.20
2018-11-11T13:43:41.770Z,19.62
2018-11-11T13:46:10.039Z,17.75
2018-11-11T13:48:38.311Z,17.60
2018-11-11T13:51:06.928Z,21.15
2018-11-11T13:53:35.147Z,18.67
2018-11-11T13:56:03.383Z,16.00
2018-11-11T13:58:31.605Z,17.67
2018-11-11T14:00:59.806Z,15.90
2018-11-11T14:03:28.038Z,18.50
2018-11-11T14:05:56.263Z,17.92
2018-11-11T14:08:24.586Z,19.20
2018-11-11T14:10:52.821Z,20.20
2018-11-11T14:13:21.019Z,17.40
2018-11-11T14:15:49.350Z,16.55
2018-11-11T14:18:17.763Z,16.23
2018-11-11T14:20:45.843Z,15.55
2018-11-11T14:23:14.054Z,16.37
2018-11-11T14:25:42.266Z,15.95
2018-11-11T14:28:10.492Z,16.77
2018-11-11T14:30:38.698Z,14.68
2018-11-11T14:33:06.914Z,14.55
2018-11-11T14:35:35.116Z,14.28
2018-11-11T14:38:03.332Z,15.53
2018-11-11T14:40:31.575Z,13.65
2018-11-11T14:42:59.787Z,16.87
2018-11-11T14:45:28.302Z,17.92
2018-11-11T14:47:57.199Z,16.60
2018-11-11T14:50:25.943Z,15.30
2018-11-11T14:52:54.291Z,15.58
2018-11-11T14:55:25.115Z,13.25
2018-11-11T14:57:53.343Z,14.28
2018-11-11T15:00:23.469Z,15.83
2018-11-11T15:03:08.824Z,18.25
2018-11-11T15:05:37.040Z,14.25
2018-11-11T15:08:05.408Z,17.40
2018-11-11T15:10:33.622Z,16.62
2018-11-11T15:13:01.867Z,16.40
2018-11-11T15:15:30.082Z,14.90
2018-11-11T15:17:59.946Z,15.95
2018-11-11T15:20:28.230Z,14.50
2018-11-11T15:22:56.443Z,14.60
2018-11-11T15:25:26.147Z,17.65
2018-11-11T15:27:54.320Z,15.38
2018-11-11T15:30:23.933Z,16.48
2018-11-11T15:32:52.955Z,14.90
2018-11-11T15:35:21.186Z,15.15
2018-11-11T15:37:49.410Z,16.25
2018-11-11T15:40:23.978Z,16.87
2018-11-11T15:42:52.215Z,14.50
2018-11-11T15:45:22.981Z,15.38
2018-11-11T15:47:51.220Z,13.70
2018-11-11T15:50:21.545Z,19.17
2018-11-11T15:52:52.124Z,17.27
2018-11-11T15:55:21.278Z,17.73
2018-11-11T15:57:49.490Z,18.82
2018-11-11T16:00:20.851Z,15.13
2018-11-11T16:02:49.068Z,14.95
2018-11-11T16:05:17.985Z,14.68
2018-11-11T16:07:47.118Z,15.65
2018-11-11T16:10:20.042Z,14.95
2018-11-11T16:12:48.734Z,17.48
2018-11-11T16:15:19.068Z,14.93
2018-11-11T16:17:49.187Z,16.73
2018-11-11T16:20:20.213Z,17.57
2018-11-11T16:22:49.427Z,14.30
2018-11-11T16:25:17.727Z,15.48
2018-11-11T16:27:46.987Z,20.50
2018-11-11T16:30:17.578Z,16.32
2018-11-11T16:32:46.223Z,18.17
2018-11-11T16:35:15.740Z,13.00
2018-11-11T16:37:44.013Z,16.67
2018-11-11T16:40:13.918Z,12.47
2018-11-11T16:42:42.637Z,13.38
2018-11-11T16:45:11.930Z,11.18
2018-11-11T16:47:40.159Z,12.93
2018-11-11T16:50:09.816Z,14.35
2018-11-11T16:52:38.593Z,15.05
2018-11-11T16:55:08.331Z,18.07
2018-11-11T16:57:36.530Z,14.83
2018-11-11T17:00:05.798Z,17.73
2018-11-11T17:02:34.017Z,15.03
2018-11-11T17:05:02.231Z,14.63
2018-11-11T17:07:30.938Z,16.40
2018-11-11T17:09:59.146Z,14.70
2018-11-11T17:12:27.369Z,14.85
2018-11-11T17:14:55.705Z,14.68
2018-11-11T17:17:24.014Z,14.05
2018-11-11T17:19:52.392Z,13.75
2018-11-11T17:22:20.778Z,14.00
2018-11-11T17:24:48.987Z,19.05
2018-11-11T17:27:17.289Z,16.85
2018-11-11T17:29:45.553Z,14.98
2018-11-11T17:32:13.790Z,16.62
2018-11-11T17:34:41.997Z,14.45
2018-11-11T17:37:10.211Z,14.87
2018-11-11T17:39:38.439Z,14.73
2018-11-11T17:42:06.694Z,16.15
2018-11-11T17:44:34.911Z,14.18
2018-11-11T17:47:03.136Z,13.15
2018-11-11T17:49:31.347Z,13.83
2018-11-11T17:51:59.618Z,14.18
2018-11-11T17:54:27.791Z,14.87
2018-11-11T17:56:56.025Z,14.07
2018-11-11T17:59:24.638Z,12.88
2018-11-11T18:01:52.863Z,14.30
2018-11-11T18:04:21.075Z,15.10
2018-11-11T18:06:49.299Z,15.48
2018-11-11T18:09:17.515Z,15.15
2018-11-11T18:11:45.721Z,15.28
2018-11-11T18:14:13.973Z,15.48
2018-11-11T18:16:42.177Z,17.57
2018-11-11T18:19:10.421Z,16.85
2018-11-11T18:21:38.639Z,15.58
2018-11-11T18:24:06.859Z,15.72
2018-11-11T18:26:35.327Z,17.57
2018-11-11T18:29:03.511Z,17.37
2018-11-11T18:31:31.804Z,20.00
2018-11-11T18:34:00.039Z,13.90
2018-11-11T18:36:28.279Z,16.52
2018-11-11T18:38:56.927Z,15.80
2018-11-11T18:41:25.169Z,16.57
2018-11-11T18:43:53.370Z,15.70
2018-11-11T18:46:21.588Z,15.58
2018-11-11T18:48:49.812Z,16.10
2018-11-11T18:51:18.026Z,17.73
2018-11-11T18:53:46.315Z,14.85
2018-11-11T18:56:14.488Z,16.45
2018-11-11T18:58:42.698Z,16.40
2018-11-11T19:01:10.917Z,12.93
2018-11-11T19:03:39.183Z,15.63
2018-11-11T19:06:07.827Z,17.37
2018-11-11T19:08:36.377Z,15.40
2018-11-11T19:11:05.538Z,15.08
2018-11-11T19:13:33.944Z,15.18
2018-11-11T19:16:02.495Z,17.17
2018-11-11T19:18:31.052Z,19.73
2018-11-11T19:20:59.680Z,13.85
2018-11-11T19:23:28.189Z,18.05
2018-11-11T19:25:56.731Z,16.97
2018-11-11T19:28:25.296Z,16.77
2018-11-11T19:30:53.891Z,15.55
2018-11-11T19:33:22.453Z,15.63
2018-11-11T19:35:51.031Z,13.18
2018-11-11T19:38:19.575Z,16.35
2018-11-11T19:40:48.127Z,14.75
2018-11-11T19:43:16.674Z,17.42
2018-11-11T19:45:45.232Z,23.45
2018-11-11T19:48:13.840Z,16.17
2018-11-11T19:50:42.365Z,17.07
2018-11-11T19:53:10.946Z,15.03
2018-11-11T19:55:39.545Z,14.05
2018-11-11T19:58:08.114Z,13.32
2018-11-11T20:00:36.651Z,13.93
2018-11-11T20:03:06.090Z,14.63
2018-11-11T20:05:34.653Z,12.63
2018-11-11T20:08:03.211Z,13.88
2018-11-11T20:10:32.089Z,11.43
2018-11-11T20:13:01.524Z,13.08
2018-11-11T20:15:31.347Z,14.40
2018-11-11T20:17:59.933Z,15.75
2018-11-11T20:20:30.167Z,15.03
2018-11-11T20:22:58.715Z,17.37
2018-11-11T20:25:27.254Z,14.55
2018-11-11T20:27:55.821Z,16.55
2018-11-11T20:30:26.011Z,16.73
2018-11-11T20:32:54.562Z,14.43
2018-11-11T20:35:24.949Z,14.73
2018-11-11T20:37:53.640Z,16.00
2018-11-11T20:40:23.515Z,13.72
2018-11-11T20:42:52.580Z,15.60
2018-11-11T20:45:22.632Z,16.80
2018-11-11T20:47:52.040Z,15.28
2018-11-11T20:50:22.047Z,13.55
2018-11-11T20:52:52.072Z,14.45
2018-11-11T20:55:21.460Z,13.53
2018-11-11T20:57:50.027Z,15.95
2018-11-11T21:00:20.067Z,12.68
2018-11-11T21:02:48.677Z,16.02
2018-11-11T21:05:18.592Z,14.18
2018-11-11T21:07:47.187Z,14.20
2018-11-11T21:10:17.339Z,13.68
2018-11-11T21:12:45.875Z,13.75
2018-11-11T21:15:15.875Z,11.80
2018-11-11T21:17:44.971Z,11.53
2018-11-11T21:20:14.834Z,10.43
2018-11-11T21:22:43.987Z,9.70
2018-11-11T21:25:13.105Z,8.98
2018-11-11T21:27:42.399Z,7.78
2018-11-11T21:30:28.431Z,8.45
2018-11-11T21:32:57.000Z,7.40
2018-11-11T21:35:25.963Z,8.03
2018-11-11T21:37:54.562Z,7.90
2018-11-11T21:40:24.439Z,7.03
2018-11-11T21:42:53.861Z,5.33
2018-11-11T21:45:23.484Z,7.78
2018-11-11T21:47:52.056Z,8.95
2018-11-11T21:50:22.863Z,5.75
2018-11-11T21:53:09.938Z,6.33
2018-11-11T21:55:38.414Z,7.25
2018-11-11T21:58:06.981Z,7.28
2018-11-11T22:00:35.527Z,6.75
2018-11-11T22:03:04.347Z,7.15
2018-11-11T22:05:32.867Z,7.17
2018-11-11T22:08:01.409Z,7.58
2018-11-11T22:10:29.975Z,6.67
2018-11-11T22:12:58.508Z,7.10
2018-11-11T22:15:27.063Z,7.35
2018-11-11T22:17:55.645Z,8.30
2018-11-11T22:20:24.171Z,9.53
2018-11-11T22:22:52.714Z,7.87
2018-11-11T22:25:21.270Z,8.58
2018-11-11T22:27:49.842Z,9.40
2018-11-11T22:30:18.393Z,9.40
2018-11-11T22:32:46.926Z,8.10
2018-11-11T22:35:15.476Z,9.10
2018-11-11T22:37:44.015Z,12.07
2018-11-11T22:40:13.787Z,12.73
2018-11-11T22:42:42.336Z,10.20
2018-11-11T22:45:13.525Z,10.13
2018-11-11T22:47:42.536Z,19.12
2018-11-11T22:50:14.602Z,9.20
2018-11-11T22:52:43.343Z,8.18
2018-11-11T22:55:12.163Z,8.93
2018-11-11T22:57:41.559Z,8.88
2018-11-11T23:00:17.596Z,8.70
2018-11-11T23:02:46.159Z,8.95
2018-11-11T23:05:15.802Z,7.30
2018-11-11T23:07:44.906Z,6.58
2018-11-11T23:10:13.455Z,6.45
2018-11-11T23:12:41.995Z,7.67
2018-11-11T23:15:12.299Z,6.90
2018-11-11T23:17:40.856Z,7.55
2018-11-11T23:20:10.874Z,5.92
2018-11-11T23:22:39.918Z,6.42
2018-11-11T23:25:10.984Z,7.55
2018-11-11T23:27:39.526Z,7.28
2018-11-11T23:30:13.728Z,5.58
2018-11-11T23:32:42.284Z,5.30
2018-11-11T23:35:11.635Z,12.07
2018-11-11T23:37:40.572Z,6.00
2018-11-11T23:40:11.317Z,6.95
2018-11-11T23:42:40.336Z,9.18
2018-11-11T23:45:09.115Z,10.43
2018-11-11T23:47:37.961Z,10.63
2018-11-11T23:50:09.563Z,10.28
2018-11-11T23:52:38.125Z,10.03
2018-11-11T23:55:08.860Z,10.40
2018-11-11T23:57:37.410Z,10.70
